createdAt,value
2019-05-09T00:01:55.537Z,9.85
2019-05-09T00:04:44.526Z,8.98
2019-05-09T00:07:33.790Z,8.50
2019-05-09T00:10:37.721Z,11.20
2019-05-09T00:13:14.054Z,8.63
2019-05-09T00:16:03.795Z,7.85
2019-05-09T00:18:54.088Z,7.75
2019-05-09T00:21:45.319Z,7.42
2019-05-09T00:24:34.824Z,5.87
2019-05-09T00:27:24.703Z,6.37
2019-05-09T00:30:15.322Z,4.60
2019-05-09T00:33:04.566Z,4.90
2019-05-09T00:35:53.684Z,5.58
2019-05-09T00:38:46.393Z,4.95
2019-05-09T00:41:35.555Z,4.53
2019-05-09T00:44:26.672Z,4.90
2019-05-09T00:47:18.302Z,4.30
2019-05-09T00:50:08.525Z,5.17
2019-05-09T00:52:57.957Z,4.30
2019-05-09T00:55:47.163Z,4.67
2019-05-09T00:58:36.604Z,6.55
2019-05-09T01:01:25.991Z,4.97
2019-05-09T01:04:15.359Z,5.30
2019-05-09T01:07:04.526Z,5.70
2019-05-09T01:09:54.303Z,6.72
2019-05-09T01:12:44.155Z,10.58
2019-05-09T01:15:33.575Z,7.37
2019-05-09T01:18:23.741Z,6.70
2019-05-09T01:21:13.368Z,7.90
2019-05-09T01:24:03.594Z,6.90
2019-05-09T01:26:54.152Z,6.62
2019-05-09T01:29:43.964Z,5.60
2019-05-09T01:32:43.238Z,7.25
2019-05-09T01:35:33.840Z,8.18
2019-05-09T01:38:23.193Z,8.70
2019-05-09T01:41:27.157Z,11.35
2019-05-09T01:44:04.181Z,6.45
2019-05-09T01:46:54.219Z,6.42
2019-05-09T01:49:44.157Z,6.35
2019-05-09T01:52:33.829Z,6.87
2019-05-09T01:55:48.786Z,6.50
2019-05-09T01:58:38.154Z,9.40
2019-05-09T02:01:27.092Z,9.35
2019-05-09T02:04:15.787Z,7.75
2019-05-09T02:07:05.403Z,8.88
2019-05-09T02:09:54.527Z,8.33
2019-05-09T02:12:43.961Z,8.88
2019-05-09T02:15:35.527Z,10.98
2019-05-09T02:18:26.346Z,15.13
2019-05-09T02:21:15.999Z,12.95
2019-05-09T02:24:06.117Z,14.35
2019-05-09T02:26:55.054Z,13.28
2019-05-09T02:29:44.364Z,15.98
2019-05-09T02:32:34.799Z,14.23
2019-05-09T02:35:24.608Z,13.13
2019-05-09T02:38:13.134Z,19.27
2019-05-09T02:41:02.735Z,18.05
2019-05-09T02:43:51.256Z,17.05
2019-05-09T02:46:53.876Z,16.20
2019-05-09T02:49:42.875Z,20.08
2019-05-09T02:52:32.205Z,17.65
2019-05-09T02:55:21.283Z,18.10
2019-05-09T02:58:11.921Z,16.37
2019-05-09T03:01:02.385Z,19.92
2019-05-09T03:03:51.739Z,21.00
2019-05-09T03:06:41.940Z,19.10
2019-05-09T03:09:31.598Z,19.27
2019-05-09T03:12:30.364Z,18.17
2019-05-09T03:15:11.904Z,19.27
2019-05-09T03:18:01.403Z,21.23
2019-05-09T03:20:54.818Z,21.73
2019-05-09T03:23:43.773Z,20.90
2019-05-09T03:26:34.687Z,19.92
2019-05-09T03:29:24.797Z,22.98
2019-05-09T03:32:14.154Z,22.30
2019-05-09T03:35:03.731Z,22.42
2019-05-09T03:38:08.542Z,25.02
2019-05-09T03:40:58.551Z,24.77
2019-05-09T03:43:48.381Z,25.02
2019-05-09T03:46:39.737Z,29.42
2019-05-09T03:49:28.517Z,27.93
2019-05-09T03:52:17.881Z,28.65
2019-05-09T03:55:11.255Z,29.52
2019-05-09T03:58:13.857Z,36.13
2019-05-09T04:01:03.199Z,31.75
2019-05-09T04:03:52.489Z,30.52
2019-05-09T04:06:41.736Z,29.98
2019-05-09T04:09:30.216Z,29.95
2019-05-09T04:12:18.768Z,30.05
2019-05-09T04:15:09.257Z,30.25
2019-05-09T04:17:58.197Z,27.60
2019-05-09T04:20:48.351Z,31.57
2019-05-09T04:23:37.994Z,31.37
2019-05-09T04:26:31.846Z,38.30
2019-05-09T04:29:21.016Z,35.70
2019-05-09T04:32:09.798Z,32.10
2019-05-09T04:34:59.158Z,31.05
2019-05-09T04:37:48.432Z,27.87
2019-05-09T04:40:44.732Z,26.23
2019-05-09T04:43:35.529Z,24.85
2019-05-09T04:46:24.105Z,22.80
2019-05-09T04:49:10.878Z,25.60
2019-05-09T04:52:00.498Z,21.20
2019-05-09T04:54:49.090Z,22.48
2019-05-09T04:57:38.347Z,26.17
2019-05-09T05:00:37.649Z,22.15
2019-05-09T05:03:28.380Z,21.30
2019-05-09T05:06:20.572Z,23.85
2019-05-09T05:09:09.818Z,23.75
2019-05-09T05:11:58.446Z,23.57
2019-05-09T05:14:48.024Z,24.63
2019-05-09T05:17:37.828Z,33.30
2019-05-09T05:20:29.231Z,23.47
2019-05-09T05:23:29.593Z,28.90
2019-05-09T05:26:19.802Z,26.65
2019-05-09T05:29:09.051Z,28.15
2019-05-09T05:31:59.727Z,33.35
2019-05-09T05:35:07.682Z,29.25
2019-05-09T05:37:58.083Z,30.72
2019-05-09T05:40:49.737Z,30.65
2019-05-09T05:43:44.101Z,30.32
2019-05-09T05:46:30.448Z,32.65
2019-05-09T05:49:19.847Z,33.48
2019-05-09T05:52:09.026Z,36.90
2019-05-09T05:54:58.306Z,34.58
2019-05-09T05:57:48.074Z,31.15
2019-05-09T06:00:37.749Z,32.15
2019-05-09T06:03:28.255Z,30.97
2019-05-09T06:06:18.155Z,35.45
2019-05-09T06:09:10.262Z,34.38
2019-05-09T06:12:00.040Z,34.83
2019-05-09T06:14:49.175Z,33.08
2019-05-09T06:17:38.210Z,36.75
2019-05-09T06:20:28.205Z,34.13
2019-05-09T06:23:18.046Z,30.68
2019-05-09T06:26:10.080Z,37.73
2019-05-09T06:28:57.775Z,34.03
2019-05-09T06:31:48.483Z,33.08
2019-05-09T06:34:42.187Z,30.10
2019-05-09T06:37:30.844Z,34.48
2019-05-09T06:40:28.486Z,34.18
2019-05-09T06:43:28.981Z,32.20
2019-05-09T06:46:27.921Z,31.10
2019-05-09T06:49:27.611Z,31.68
2019-05-09T06:52:09.192Z,31.62
2019-05-09T06:54:58.799Z,30.02
2019-05-09T06:57:48.860Z,29.48
2019-05-09T07:00:59.185Z,27.70
2019-05-09T07:04:05.331Z,29.70
2019-05-09T07:06:59.224Z,35.25
2019-05-09T07:09:53.482Z,58.98
2019-05-09T07:12:42.872Z,32.10
2019-05-09T07:15:32.533Z,37.10
2019-05-09T07:18:22.017Z,47.38
2019-05-09T07:21:11.103Z,35.85
2019-05-09T07:23:59.741Z,36.83
2019-05-09T07:26:49.075Z,36.50
2019-05-09T07:29:38.385Z,35.05
2019-05-09T07:32:29.096Z,37.23
2019-05-09T07:35:18.739Z,40.85
2019-05-09T07:38:08.841Z,42.30
2019-05-09T07:40:59.357Z,40.52
2019-05-09T07:43:48.623Z,38.48
2019-05-09T07:46:39.173Z,38.33
2019-05-09T07:49:29.314Z,38.38
2019-05-09T07:52:18.723Z,37.70
2019-05-09T07:55:09.117Z,35.35
2019-05-09T07:57:59.332Z,34.80
2019-05-09T08:00:49.253Z,34.03
2019-05-09T08:03:38.715Z,32.55
2019-05-09T08:06:28.694Z,41.50
2019-05-09T08:09:18.832Z,34.43
2019-05-09T08:12:08.265Z,36.83
2019-05-09T08:15:10.132Z,36.00
2019-05-09T08:17:48.764Z,35.03
2019-05-09T08:20:40.661Z,33.70
2019-05-09T08:23:29.526Z,39.73
2019-05-09T08:26:19.059Z,37.58
2019-05-09T08:29:09.481Z,34.90
2019-05-09T08:31:59.057Z,35.03
2019-05-09T08:34:48.478Z,38.20
2019-05-09T08:37:39.009Z,28.70
2019-05-09T08:40:28.892Z,37.20
2019-05-09T08:43:19.826Z,32.65
2019-05-09T08:46:09.643Z,29.65
2019-05-09T08:48:58.721Z,28.83
2019-05-09T08:52:09.061Z,32.17
2019-05-09T08:54:44.820Z,27.77
2019-05-09T08:57:34.186Z,30.75
2019-05-09T09:00:23.573Z,30.77
2019-05-09T09:03:12.351Z,33.25
2019-05-09T09:06:01.612Z,29.27
2019-05-09T09:08:50.995Z,27.13
2019-05-09T09:11:40.053Z,27.52
2019-05-09T09:14:29.008Z,28.60
2019-05-09T09:17:18.709Z,26.70
2019-05-09T09:20:09.216Z,23.55
2019-05-09T09:22:58.595Z,22.65
2019-05-09T09:25:48.690Z,24.00
2019-05-09T09:28:38.080Z,23.10
2019-05-09T09:31:28.504Z,25.60
2019-05-09T09:34:18.418Z,23.38
2019-05-09T09:37:11.310Z,24.18
2019-05-09T09:39:59.090Z,23.90
2019-05-09T09:42:49.005Z,23.30
2019-05-09T09:45:39.050Z,25.55
2019-05-09T09:48:28.567Z,23.40
2019-05-09T09:51:18.613Z,24.15
2019-05-09T09:54:08.766Z,26.00
2019-05-09T09:56:59.117Z,20.60
2019-05-09T09:59:50.505Z,25.37
2019-05-09T10:02:38.950Z,18.42
2019-05-09T10:05:28.242Z,24.57
2019-05-09T10:08:18.101Z,26.35
2019-05-09T10:11:08.365Z,22.17
2019-05-09T10:13:58.457Z,22.82
2019-05-09T10:17:03.959Z,21.82
2019-05-09T10:20:00.686Z,20.10
2019-05-09T10:22:58.466Z,18.92
2019-05-09T10:25:40.059Z,19.60
2019-05-09T10:28:30.209Z,18.42
2019-05-09T10:31:19.409Z,18.98
2019-05-09T10:34:10.947Z,17.62
2019-05-09T10:36:59.293Z,17.62
2019-05-09T10:39:49.195Z,27.90
2019-05-09T10:42:48.137Z,16.80
2019-05-09T10:45:54.221Z,14.20
2019-05-09T10:48:44.849Z,10.90
2019-05-09T10:51:34.407Z,10.90
2019-05-09T10:54:23.392Z,18.92
2019-05-09T10:57:12.583Z,16.97
2019-05-09T11:00:01.756Z,11.88
2019-05-09T11:02:51.065Z,17.62
2019-05-09T11:05:40.541Z,16.20
2019-05-09T11:08:29.798Z,16.62
2019-05-09T11:11:19.517Z,17.23
2019-05-09T11:14:08.925Z,18.60
2019-05-09T11:17:07.927Z,15.65
2019-05-09T11:19:48.686Z,21.27
2019-05-09T11:22:38.776Z,12.20
2019-05-09T11:25:27.973Z,15.48
2019-05-09T11:28:17.990Z,11.55
2019-05-09T11:31:08.133Z,14.60
2019-05-09T11:33:58.259Z,10.75
2019-05-09T11:36:49.643Z,12.37
2019-05-09T11:39:42.069Z,13.13
2019-05-09T11:42:28.830Z,8.37
2019-05-09T11:45:18.217Z,23.70
2019-05-09T11:48:08.222Z,11.10
2019-05-09T11:50:58.881Z,14.43
2019-05-09T11:53:48.928Z,10.37
2019-05-09T11:56:38.973Z,6.03
2019-05-09T11:59:28.130Z,7.07
2019-05-09T12:02:18.366Z,14.90
2019-05-09T12:05:08.843Z,9.97
2019-05-09T12:07:58.438Z,2.83
2019-05-09T12:10:48.284Z,4.63
2019-05-09T12:13:38.041Z,3.73
2019-05-09T12:16:27.915Z,13.30
2019-05-09T12:19:18.073Z,5.57
2019-05-09T12:22:08.919Z,4.33
2019-05-09T12:24:59.197Z,4.23
2019-05-09T12:27:49.068Z,3.50
2019-05-09T12:30:38.287Z,3.03
2019-05-09T12:33:28.370Z,5.83
2019-05-09T12:36:19.349Z,12.93
2019-05-09T12:39:09.123Z,5.20
2019-05-09T12:41:58.535Z,9.03
2019-05-09T12:44:49.549Z,4.37
2019-05-09T12:47:39.916Z,3.20
2019-05-09T12:50:29.487Z,4.60
2019-05-09T12:53:19.138Z,4.77
2019-05-09T12:56:08.676Z,5.27
2019-05-09T12:58:58.159Z,4.93
2019-05-09T13:01:49.253Z,7.83
2019-05-09T13:04:38.223Z,5.10
2019-05-09T13:07:29.772Z,5.67
2019-05-09T13:10:19.698Z,3.00
2019-05-09T13:13:09.032Z,6.67
2019-05-09T13:16:00.459Z,4.30
2019-05-09T13:19:00.260Z,3.00
2019-05-09T13:21:47.974Z,5.40
2019-05-09T13:24:37.936Z,8.13
2019-05-09T13:27:28.627Z,3.57
2019-05-09T13:30:19.871Z,2.60
2019-05-09T13:33:10.857Z,3.23
2019-05-09T13:35:59.969Z,6.70
2019-05-09T13:39:00.294Z,7.07
2019-05-09T13:41:40.748Z,5.73
2019-05-09T13:44:29.689Z,9.37
2019-05-09T13:47:19.089Z,4.17
2019-05-09T13:50:08.980Z,3.13
2019-05-09T13:52:58.758Z,2.83
2019-05-09T13:55:48.118Z,6.07
2019-05-09T13:58:38.456Z,6.03
2019-05-09T14:01:28.393Z,3.57
2019-05-09T14:04:16.853Z,7.43
2019-05-09T14:07:08.124Z,9.13
2019-05-09T14:09:55.894Z,7.10
2019-05-09T14:12:45.371Z,5.50
2019-05-09T14:15:34.097Z,3.57
2019-05-09T14:18:23.188Z,3.33
2019-05-09T14:21:12.641Z,7.00
2019-05-09T14:24:11.456Z,4.83
2019-05-09T14:26:52.570Z,8.23
2019-05-09T14:29:41.412Z,4.47
2019-05-09T14:32:34.815Z,5.67
2019-05-09T14:35:21.948Z,4.00
2019-05-09T14:38:11.144Z,4.37
2019-05-09T14:41:01.218Z,5.20
2019-05-09T14:43:50.447Z,3.03
2019-05-09T14:46:39.786Z,3.07
2019-05-09T14:49:40.493Z,4.00
2019-05-09T14:52:19.848Z,4.07
2019-05-09T14:55:08.743Z,6.40
2019-05-09T14:57:58.011Z,8.43
2019-05-09T15:00:47.985Z,7.60
2019-05-09T15:03:38.958Z,4.30
2019-05-09T15:06:28.434Z,6.57
2019-05-09T15:09:18.188Z,6.40
2019-05-09T15:12:07.813Z,5.03
2019-05-09T15:14:57.759Z,6.87
2019-05-09T15:17:49.384Z,5.03
2019-05-09T15:20:38.135Z,4.27
2019-05-09T15:23:29.195Z,5.00
2019-05-09T15:26:18.867Z,8.87
2019-05-09T15:29:08.231Z,3.20
2019-05-09T15:32:05.383Z,8.40
2019-05-09T15:34:48.674Z,4.23
2019-05-09T15:37:38.741Z,8.37
2019-05-09T15:40:28.276Z,4.43
2019-05-09T15:43:18.572Z,4.80
2019-05-09T15:46:09.355Z,5.67
2019-05-09T15:48:59.132Z,2.17
2019-05-09T15:51:48.205Z,11.83
2019-05-09T15:54:38.633Z,6.83
2019-05-09T15:57:28.609Z,8.23
2019-05-09T16:00:19.167Z,5.70
2019-05-09T16:03:08.377Z,5.50
2019-05-09T16:05:58.548Z,3.77
2019-05-09T16:08:48.552Z,5.97
2019-05-09T16:11:37.809Z,8.43
2019-05-09T16:14:27.676Z,3.80
2019-05-09T16:17:19.071Z,6.60
2019-05-09T16:20:08.632Z,6.00
2019-05-09T16:22:58.390Z,3.43
2019-05-09T16:25:48.045Z,6.83
2019-05-09T16:28:38.005Z,11.87
2019-05-09T16:31:27.903Z,6.93
2019-05-09T16:34:17.992Z,4.97
2019-05-09T16:37:07.804Z,3.30
2019-05-09T16:39:57.746Z,3.80
2019-05-09T16:42:47.620Z,5.53
2019-05-09T16:45:37.988Z,8.37
2019-05-09T16:48:27.832Z,8.80
2019-05-09T16:51:18.258Z,9.30
2019-05-09T16:54:08.134Z,6.73
2019-05-09T16:56:57.472Z,6.67
2019-05-09T16:59:47.900Z,4.93
2019-05-09T17:02:38.198Z,5.55
2019-05-09T17:05:27.952Z,6.90
2019-05-09T17:08:17.914Z,6.08
2019-05-09T17:11:07.765Z,5.50
2019-05-09T17:13:58.412Z,9.15
2019-05-09T17:16:48.350Z,5.55
2019-05-09T17:19:39.037Z,5.25
2019-05-09T17:22:47.403Z,7.67
2019-05-09T17:25:38.514Z,7.42
2019-05-09T17:28:28.518Z,10.88
2019-05-09T17:31:18.249Z,5.25
2019-05-09T17:34:07.087Z,2.98
2019-05-09T17:36:57.676Z,6.50
2019-05-09T17:39:46.278Z,5.50
2019-05-09T17:42:38.037Z,6.30
2019-05-09T17:45:26.058Z,5.05
2019-05-09T17:48:14.665Z,5.87
2019-05-09T17:51:03.423Z,17.90
2019-05-09T17:53:52.801Z,4.87
2019-05-09T17:56:41.395Z,3.50
2019-05-09T17:59:30.422Z,8.15
2019-05-09T18:02:19.999Z,11.35
2019-05-09T18:05:09.742Z,5.15
2019-05-09T18:07:58.280Z,5.47
2019-05-09T18:10:48.470Z,9.60
2019-05-09T18:13:38.551Z,19.62
2019-05-09T18:16:28.607Z,8.73
2019-05-09T18:19:18.370Z,7.40
2019-05-09T18:22:08.252Z,6.45
2019-05-09T18:24:57.772Z,8.13
2019-05-09T18:27:48.847Z,10.03
2019-05-09T18:30:38.848Z,6.17
2019-05-09T18:33:30.143Z,9.63
2019-05-09T18:36:18.756Z,6.30
2019-05-09T18:39:08.075Z,7.62
2019-05-09T18:42:00.047Z,6.55
2019-05-09T18:44:48.861Z,7.83
2019-05-09T18:47:37.919Z,9.70
2019-05-09T18:50:27.070Z,10.25
2019-05-09T18:53:16.972Z,11.22
2019-05-09T18:56:05.966Z,9.45
2019-05-09T18:58:55.416Z,7.87
2019-05-09T19:01:44.429Z,6.85
2019-05-09T19:04:34.646Z,7.37
2019-05-09T19:07:23.932Z,6.65
2019-05-09T19:10:13.472Z,7.95
2019-05-09T19:13:03.177Z,9.93
2019-05-09T19:16:11.852Z,4.62
2019-05-09T19:19:08.553Z,12.28
2019-05-09T19:22:04.389Z,5.78
2019-05-09T19:24:50.685Z,17.75
2019-05-09T19:27:39.715Z,8.58
2019-05-09T19:30:29.032Z,6.67
2019-05-09T19:33:18.285Z,18.37
2019-05-09T19:36:07.428Z,8.78
2019-05-09T19:38:56.412Z,22.45
2019-05-09T19:41:45.883Z,10.32
2019-05-09T19:44:34.867Z,15.75
2019-05-09T19:47:23.708Z,17.60
2019-05-09T19:50:13.131Z,10.32
2019-05-09T19:53:02.071Z,10.30
2019-05-09T19:55:51.521Z,12.47
2019-05-09T19:58:41.303Z,11.63
2019-05-09T20:01:30.070Z,11.18
2019-05-09T20:04:19.340Z,22.50
2019-05-09T20:07:08.068Z,11.08
2019-05-09T20:10:01.789Z,13.43
2019-05-09T20:12:50.742Z,8.25
2019-05-09T20:15:40.300Z,9.15
2019-05-09T20:18:29.571Z,10.98
2019-05-09T20:21:18.605Z,11.55
2019-05-09T20:24:09.344Z,6.40
2019-05-09T20:26:59.320Z,7.97
2019-05-09T20:29:48.499Z,17.25
2019-05-09T20:32:37.601Z,22.17
2019-05-09T20:35:26.616Z,8.23
2019-05-09T20:38:16.195Z,8.43
2019-05-09T20:41:05.766Z,18.37
2019-05-09T20:43:55.353Z,5.22
2019-05-09T20:46:45.190Z,10.43
2019-05-09T20:49:34.500Z,6.40
2019-05-09T20:52:24.107Z,9.18
2019-05-09T20:55:13.634Z,11.20
2019-05-09T20:58:02.934Z,7.28
2019-05-09T21:00:52.602Z,6.17
2019-05-09T21:03:57.763Z,8.03
2019-05-09T21:06:33.399Z,12.53
2019-05-09T21:09:23.178Z,6.20
2019-05-09T21:12:12.659Z,15.10
2019-05-09T21:15:02.133Z,16.20
2019-05-09T21:17:51.501Z,11.65
2019-05-09T21:20:41.172Z,9.10
2019-05-09T21:23:30.264Z,7.83
2019-05-09T21:26:20.123Z,14.35
2019-05-09T21:29:09.601Z,5.08
2019-05-09T21:31:58.791Z,21.50
2019-05-09T21:34:48.036Z,16.25
2019-05-09T21:37:37.008Z,10.03
2019-05-09T21:40:26.167Z,5.58
2019-05-09T21:43:15.390Z,5.45
2019-05-09T21:46:04.393Z,6.35
2019-05-09T21:48:53.763Z,6.08
2019-05-09T21:51:42.679Z,11.35
2019-05-09T21:54:32.304Z,19.75
2019-05-09T21:57:21.568Z,13.60
2019-05-09T22:00:31.334Z,9.08
2019-05-09T22:03:19.807Z,7.10
2019-05-09T22:06:09.047Z,5.25
2019-05-09T22:08:58.407Z,7.50
2019-05-09T22:11:47.074Z,12.65
2019-05-09T22:14:36.236Z,9.85
2019-05-09T22:17:26.688Z,11.45
2019-05-09T22:20:16.798Z,10.03
2019-05-09T22:23:06.710Z,10.15
2019-05-09T22:25:56.071Z,7.72
2019-05-09T22:28:45.635Z,7.90
2019-05-09T22:31:34.922Z,6.58
2019-05-09T22:34:24.088Z,13.75
2019-05-09T22:37:13.362Z,6.10
2019-05-09T22:40:02.514Z,15.35
2019-05-09T22:42:51.579Z,4.95
2019-05-09T22:45:40.565Z,6.67
2019-05-09T22:48:29.912Z,6.83
2019-05-09T22:51:19.601Z,6.75
2019-05-09T22:54:12.697Z,7.55
2019-05-09T22:56:59.757Z,20.25
2019-05-09T22:59:48.880Z,6.58
2019-05-09T23:02:38.035Z,14.65
2019-05-09T23:05:27.590Z,9.15
2019-05-09T23:08:16.694Z,12.53
2019-05-09T23:11:05.532Z,13.00
2019-05-09T23:13:54.501Z,7.90
2019-05-09T23:16:43.441Z,8.00
2019-05-09T23:19:32.130Z,15.25
2019-05-09T23:22:22.523Z,13.40
2019-05-09T23:25:11.857Z,12.18
2019-05-09T23:28:01.155Z,10.13
2019-05-09T23:30:52.099Z,10.82
2019-05-09T23:33:42.395Z,10.82
2019-05-09T23:36:31.821Z,10.18
2019-05-09T23:39:24.998Z,10.05
2019-05-09T23:42:14.546Z,6.78
2019-05-09T23:45:05.531Z,12.23
2019-05-09T23:47:54.713Z,10.18
2019-05-09T23:50:43.990Z,6.50
2019-05-09T23:53:37.423Z,6.37
2019-05-09T23:56:43.828Z,6.60
2019-05-09T23:59:51.319Z,7.62
